sensor_id;sensor_type;location;lat;lon;timestamp;P1;durP1;ratioP1;P2;durP2;ratioP2
34896;SDS011;43407;51.828;-2.298;2022-07-29T00:00:01;1.20;;;1.10;;
34896;SDS011;43407;51.828;-2.298;2022-07-29T00:02:29;1.98;;;1.40;;
34896;SDS011;43407;51.828;-2.298;2022-07-29T00:04:56;4.45;;;1.63;;
34896;SDS011;43407;51.828;-2.298;2022-07-29T00:07:22;1.67;;;1.20;;
34896;SDS011;43407;51.828;-2.298;2022-07-29T00:09:47;1.85;;;1.23;;
34896;SDS011;43407;51.828;-2.298;2022-07-29T00:12:13;1.92;;;1.40;;
34896;SDS011;43407;51.828;-2.298;2022-07-29T00:14:38;1.98;;;1.30;;
34896;SDS011;43407;51.828;-2.298;2022-07-29T00:17:04;1.55;;;1.42;;
34896;SDS011;43407;51.828;-2.298;2022-07-29T00:19:29;2.15;;;1.38;;
34896;SDS011;43407;51.828;-2.298;2022-07-29T00:21:55;2.58;;;1.38;;
34896;SDS011;43407;51.828;-2.298;2022-07-29T00:24:20;2.42;;;1.50;;
34896;SDS011;43407;51.828;-2.298;2022-07-29T00:26:46;2.72;;;1.70;;
34896;SDS011;43407;51.828;-2.298;2022-07-29T00:29:11;1.67;;;1.23;;
34896;SDS011;43407;51.828;-2.298;2022-07-29T00:31:37;1.40;;;1.30;;
34896;SDS011;43407;51.828;-2.298;2022-07-29T00:34:02;1.67;;;1.50;;
34896;SDS011;43407;51.828;-2.298;2022-07-29T00:36:28;2.90;;;1.50;;
34896;SDS011;43407;51.828;-2.298;2022-07-29T00:38:53;2.70;;;1.50;;
34896;SDS011;43407;51.828;-2.298;2022-07-29T00:41:19;1.40;;;1.30;;
34896;SDS011;43407;51.828;-2.298;2022-07-29T00:43:45;1.33;;;1.23;;
34896;SDS011;43407;51.828;-2.298;2022-07-29T00:46:10;2.78;;;1.27;;
34896;SDS011;43407;51.828;-2.298;2022-07-29T00:48:36;1.35;;;1.10;;
34896;SDS011;43407;51.828;-2.298;2022-07-29T00:51:03;3.03;;;1.00;;
34896;SDS011;43407;51.828;-2.298;2022-07-29T00:53:30;2.88;;;1.20;;
34896;SDS011;43407;51.828;-2.298;2022-07-29T00:55:56;4.40;;;1.20;;
34896;SDS011;43407;51.828;-2.298;2022-07-29T00:58:23;2.50;;;1.30;;
34896;SDS011;43407;51.828;-2.298;2022-07-29T01:00:49;1.20;;;1.10;;
34896;SDS011;43407;51.828;-2.298;2022-07-29T01:03:15;1.60;;;1.10;;
34896;SDS011;43407;51.828;-2.298;2022-07-29T01:05:41;2.30;;;1.10;;
34896;SDS011;43407;51.828;-2.298;2022-07-29T01:08:07;3.28;;;1.10;;
34896;SDS011;43407;51.828;-2.298;2022-07-29T01:10:33;1.38;;;1.20;;
34896;SDS011;43407;51.828;-2.298;2022-07-29T01:12:59;2.72;;;1.42;;
34896;SDS011;43407;51.828;-2.298;2022-07-29T01:15:26;1.63;;;1.23;;
34896;SDS011;43407;51.828;-2.298;2022-07-29T01:17:54;1.65;;;1.20;;
34896;SDS011;43407;51.828;-2.298;2022-07-29T01:23:57;2.47;;;1.40;;
34896;SDS011;43407;51.828;-2.298;2022-07-29T01:26:31;2.60;;;1.50;;
34896;SDS011;43407;51.828;-2.298;2022-07-29T01:29:26;1.42;;;1.33;;
34896;SDS011;43407;51.828;-2.298;2022-07-29T01:32:01;2.30;;;1.20;;
34896;SDS011;43407;51.828;-2.298;2022-07-29T01:34:35;4.03;;;1.20;;
34896;SDS011;43407;51.828;-2.298;2022-07-29T01:37:20;2.63;;;1.50;;
34896;SDS011;43407;51.828;-2.298;2022-07-29T01:39:49;1.30;;;1.20;;
34896;SDS011;43407;51.828;-2.298;2022-07-29T01:45:14;2.22;;;1.45;;
34896;SDS011;43407;51.828;-2.298;2022-07-29T01:47:54;1.65;;;1.45;;
34896;SDS011;43407;51.828;-2.298;2022-07-29T01:50:27;2.20;;;1.75;;
34896;SDS011;43407;51.828;-2.298;2022-07-29T01:52:56;2.22;;;1.23;;
34896;SDS011;43407;51.828;-2.298;2022-07-29T01:55:25;3.05;;;1.50;;
34896;SDS011;43407;51.828;-2.298;2022-07-29T01:57:55;2.90;;;1.30;;
34896;SDS011;43407;51.828;-2.298;2022-07-29T02:00:21;1.27;;;1.17;;
34896;SDS011;43407;51.828;-2.298;2022-07-29T02:02:47;1.30;;;1.20;;
34896;SDS011;43407;51.828;-2.298;2022-07-29T02:05:14;1.55;;;1.30;;
34896;SDS011;43407;51.828;-2.298;2022-07-29T02:07:41;1.85;;;1.25;;
34896;SDS011;43407;51.828;-2.298;2022-07-29T02:10:08;1.55;;;1.40;;
34896;SDS011;43407;51.828;-2.298;2022-07-29T02:12:35;1.23;;;1.15;;
34896;SDS011;43407;51.828;-2.298;2022-07-29T02:15:02;1.33;;;1.23;;
34896;SDS011;43407;51.828;-2.298;2022-07-29T02:17:42;1.70;;;1.30;;
34896;SDS011;43407;51.828;-2.298;2022-07-29T02:20:11;1.80;;;1.40;;
34896;SDS011;43407;51.828;-2.298;2022-07-29T02:22:38;1.48;;;1.30;;
34896;SDS011;43407;51.828;-2.298;2022-07-29T02:25:05;1.10;;;1.00;;
34896;SDS011;43407;51.828;-2.298;2022-07-29T02:27:32;1.50;;;1.10;;
34896;SDS011;43407;51.828;-2.298;2022-07-29T02:29:58;2.20;;;1.25;;
34896;SDS011;43407;51.828;-2.298;2022-07-29T02:32:26;1.85;;;1.27;;
34896;SDS011;43407;51.828;-2.298;2022-07-29T02:34:52;1.42;;;1.00;;
34896;SDS011;43407;51.828;-2.298;2022-07-29T02:37:18;1.90;;;1.30;;
34896;SDS011;43407;51.828;-2.298;2022-07-29T02:39:45;1.80;;;1.42;;
34896;SDS011;43407;51.828;-2.298;2022-07-29T02:42:15;1.88;;;1.25;;
34896;SDS011;43407;51.828;-2.298;2022-07-29T02:44:41;1.95;;;1.50;;
34896;SDS011;43407;51.828;-2.298;2022-07-29T02:47:09;2.00;;;1.70;;
34896;SDS011;43407;51.828;-2.298;2022-07-29T02:49:37;1.58;;;1.30;;
34896;SDS011;43407;51.828;-2.298;2022-07-29T02:52:31;1.70;;;1.20;;
34896;SDS011;43407;51.828;-2.298;2022-07-29T02:54:58;2.50;;;1.30;;
34896;SDS011;43407;51.828;-2.298;2022-07-29T02:57:34;2.60;;;1.52;;
34896;SDS011;43407;51.828;-2.298;2022-07-29T03:00:06;1.90;;;1.50;;
34896;SDS011;43407;51.828;-2.298;2022-07-29T03:02:34;2.53;;;1.55;;
34896;SDS011;43407;51.828;-2.298;2022-07-29T03:05:02;2.95;;;1.38;;
34896;SDS011;43407;51.828;-2.298;2022-07-29T03:07:29;1.60;;;1.50;;
34896;SDS011;43407;51.828;-2.298;2022-07-29T03:09:55;1.63;;;1.20;;
34896;SDS011;43407;51.828;-2.298;2022-07-29T03:12:22;3.40;;;1.60;;
34896;SDS011;43407;51.828;-2.298;2022-07-29T03:14:48;2.67;;;1.50;;
34896;SDS011;43407;51.828;-2.298;2022-07-29T03:17:13;2.15;;;1.80;;
34896;SDS011;43407;51.828;-2.298;2022-07-29T03:19:40;2.70;;;1.70;;
34896;SDS011;43407;51.828;-2.298;2022-07-29T03:22:05;2.67;;;1.38;;
34896;SDS011;43407;51.828;-2.298;2022-07-29T03:24:32;2.13;;;1.50;;
34896;SDS011;43407;51.828;-2.298;2022-07-29T03:26:59;2.45;;;1.20;;
34896;SDS011;43407;51.828;-2.298;2022-07-29T03:29:25;2.92;;;1.45;;
34896;SDS011;43407;51.828;-2.298;2022-07-29T03:31:51;1.95;;;1.50;;
34896;SDS011;43407;51.828;-2.298;2022-07-29T03:34:17;1.42;;;1.15;;
34896;SDS011;43407;51.828;-2.298;2022-07-29T03:36:43;2.67;;;1.17;;
34896;SDS011;43407;51.828;-2.298;2022-07-29T03:39:08;1.77;;;1.40;;
34896;SDS011;43407;51.828;-2.298;2022-07-29T03:41:35;2.25;;;1.30;;
34896;SDS011;43407;51.828;-2.298;2022-07-29T03:44:02;4.13;;;1.40;;
34896;SDS011;43407;51.828;-2.298;2022-07-29T03:46:28;1.90;;;1.40;;
34896;SDS011;43407;51.828;-2.298;2022-07-29T03:48:55;1.80;;;1.40;;
34896;SDS011;43407;51.828;-2.298;2022-07-29T03:51:23;3.53;;;1.15;;
34896;SDS011;43407;51.828;-2.298;2022-07-29T03:53:49;1.20;;;1.10;;
34896;SDS011;43407;51.828;-2.298;2022-07-29T03:56:15;1.85;;;1.33;;
34896;SDS011;43407;51.828;-2.298;2022-07-29T03:58:41;2.90;;;1.35;;
34896;SDS011;43407;51.828;-2.298;2022-07-29T04:01:07;2.05;;;1.40;;
34896;SDS011;43407;51.828;-2.298;2022-07-29T04:03:33;2.38;;;1.20;;
34896;SDS011;43407;51.828;-2.298;2022-07-29T04:06:00;1.92;;;1.40;;
34896;SDS011;43407;51.828;-2.298;2022-07-29T04:08:28;6.40;;;1.35;;
34896;SDS011;43407;51.828;-2.298;2022-07-29T04:10:53;2.05;;;1.63;;
34896;SDS011;43407;51.828;-2.298;2022-07-29T04:13:19;2.85;;;1.40;;
34896;SDS011;43407;51.828;-2.298;2022-07-29T04:15:45;1.38;;;1.27;;
34896;SDS011;43407;51.828;-2.298;2022-07-29T04:18:10;2.15;;;1.35;;
34896;SDS011;43407;51.828;-2.298;2022-07-29T04:20:36;1.70;;;1.33;;
34896;SDS011;43407;51.828;-2.298;2022-07-29T04:23:02;1.73;;;1.10;;
34896;SDS011;43407;51.828;-2.298;2022-07-29T04:25:27;2.30;;;1.42;;
34896;SDS011;43407;51.828;-2.298;2022-07-29T04:27:53;1.67;;;1.30;;
34896;SDS011;43407;51.828;-2.298;2022-07-29T04:30:28;1.42;;;1.23;;
34896;SDS011;43407;51.828;-2.298;2022-07-29T04:32:54;3.92;;;1.42;;
34896;SDS011;43407;51.828;-2.298;2022-07-29T04:35:20;4.40;;;1.60;;
34896;SDS011;43407;51.828;-2.298;2022-07-29T04:37:46;1.98;;;1.70;;
34896;SDS011;43407;51.828;-2.298;2022-07-29T04:40:11;7.18;;;1.83;;
34896;SDS011;43407;51.828;-2.298;2022-07-29T04:42:37;3.40;;;2.35;;
34896;SDS011;43407;51.828;-2.298;2022-07-29T04:45:03;2.50;;;2.30;;
34896;SDS011;43407;51.828;-2.298;2022-07-29T04:47:29;3.30;;;2.70;;
34896;SDS011;43407;51.828;-2.298;2022-07-29T04:49:55;4.15;;;2.45;;
34896;SDS011;43407;51.828;-2.298;2022-07-29T04:52:21;3.47;;;2.30;;
34896;SDS011;43407;51.828;-2.298;2022-07-29T04:54:47;3.33;;;2.40;;
34896;SDS011;43407;51.828;-2.298;2022-07-29T04:57:12;4.05;;;2.55;;
34896;SDS011;43407;51.828;-2.298;2022-07-29T04:59:38;3.28;;;2.60;;
34896;SDS011;43407;51.828;-2.298;2022-07-29T05:02:03;4.13;;;2.90;;
34896;SDS011;43407;51.828;-2.298;2022-07-29T05:04:29;8.18;;;3.45;;
34896;SDS011;43407;51.828;-2.298;2022-07-29T05:06:54;3.55;;;2.88;;
34896;SDS011;43407;51.828;-2.298;2022-07-29T05:09:20;5.40;;;3.40;;
34896;SDS011;43407;51.828;-2.298;2022-07-29T05:11:45;4.15;;;3.05;;
34896;SDS011;43407;51.828;-2.298;2022-07-29T05:14:10;4.25;;;3.10;;
34896;SDS011;43407;51.828;-2.298;2022-07-29T05:16:36;3.40;;;2.95;;
34896;SDS011;43407;51.828;-2.298;2022-07-29T05:19:01;3.42;;;3.13;;
34896;SDS011;43407;51.828;-2.298;2022-07-29T05:21:27;3.05;;;2.85;;
34896;SDS011;43407;51.828;-2.298;2022-07-29T05:23:53;2.80;;;2.60;;
34896;SDS011;43407;51.828;-2.298;2022-07-29T05:26:18;2.90;;;2.60;;
34896;SDS011;43407;51.828;-2.298;2022-07-29T05:28:44;6.15;;;3.10;;
34896;SDS011;43407;51.828;-2.298;2022-07-29T05:31:09;3.35;;;2.88;;
34896;SDS011;43407;51.828;-2.298;2022-07-29T05:33:35;5.00;;;2.67;;
34896;SDS011;43407;51.828;-2.298;2022-07-29T05:36:00;3.63;;;2.80;;
34896;SDS011;43407;51.828;-2.298;2022-07-29T05:38:26;4.10;;;3.20;;
34896;SDS011;43407;51.828;-2.298;2022-07-29T05:40:51;2.90;;;2.70;;
34896;SDS011;43407;51.828;-2.298;2022-07-29T05:43:17;3.47;;;2.90;;
34896;SDS011;43407;51.828;-2.298;2022-07-29T05:45:42;3.85;;;3.33;;
34896;SDS011;43407;51.828;-2.298;2022-07-29T05:48:08;3.53;;;3.15;;
34896;SDS011;43407;51.828;-2.298;2022-07-29T05:50:33;3.33;;;2.85;;
34896;SDS011;43407;51.828;-2.298;2022-07-29T05:52:59;4.00;;;2.70;;
34896;SDS011;43407;51.828;-2.298;2022-07-29T05:55:24;4.00;;;3.60;;
34896;SDS011;43407;51.828;-2.298;2022-07-29T05:57:51;4.63;;;3.40;;
34896;SDS011;43407;51.828;-2.298;2022-07-29T06:00:17;7.53;;;3.10;;
34896;SDS011;43407;51.828;-2.298;2022-07-29T06:02:42;4.88;;;3.35;;
34896;SDS011;43407;51.828;-2.298;2022-07-29T06:05:08;4.32;;;3.00;;
34896;SDS011;43407;51.828;-2.298;2022-07-29T06:07:33;4.82;;;2.90;;
34896;SDS011;43407;51.828;-2.298;2022-07-29T06:09:59;3.17;;;2.88;;
34896;SDS011;43407;51.828;-2.298;2022-07-29T06:12:24;4.47;;;3.03;;
34896;SDS011;43407;51.828;-2.298;2022-07-29T06:14:50;4.32;;;2.78;;
34896;SDS011;43407;51.828;-2.298;2022-07-29T06:17:16;3.17;;;2.40;;
34896;SDS011;43407;51.828;-2.298;2022-07-29T06:19:41;2.60;;;2.40;;
34896;SDS011;43407;51.828;-2.298;2022-07-29T06:22:07;4.65;;;2.90;;
34896;SDS011;43407;51.828;-2.298;2022-07-29T06:24:32;3.22;;;2.58;;
34896;SDS011;43407;51.828;-2.298;2022-07-29T06:26:58;3.45;;;2.58;;
34896;SDS011;43407;51.828;-2.298;2022-07-29T06:29:24;4.22;;;2.15;;
34896;SDS011;43407;51.828;-2.298;2022-07-29T06:31:49;3.90;;;2.10;;
34896;SDS011;43407;51.828;-2.298;2022-07-29T06:34:15;2.80;;;1.88;;
34896;SDS011;43407;51.828;-2.298;2022-07-29T06:36:41;3.67;;;2.30;;
34896;SDS011;43407;51.828;-2.298;2022-07-29T06:39:07;3.58;;;2.28;;
34896;SDS011;43407;51.828;-2.298;2022-07-29T06:41:33;2.47;;;1.85;;
34896;SDS011;43407;51.828;-2.298;2022-07-29T06:43:58;2.45;;;1.88;;
34896;SDS011;43407;51.828;-2.298;2022-07-29T06:46:24;2.13;;;1.73;;
34896;SDS011;43407;51.828;-2.298;2022-07-29T06:48:50;3.40;;;2.00;;
34896;SDS011;43407;51.828;-2.298;2022-07-29T06:51:16;3.95;;;2.00;;
34896;SDS011;43407;51.828;-2.298;2022-07-29T06:53:42;1.38;;;1.25;;
34896;SDS011;43407;51.828;-2.298;2022-07-29T06:56:08;2.20;;;1.60;;
34896;SDS011;43407;51.828;-2.298;2022-07-29T06:58:34;3.55;;;1.50;;
34896;SDS011;43407;51.828;-2.298;2022-07-29T07:01:01;2.45;;;1.35;;
34896;SDS011;43407;51.828;-2.298;2022-07-29T07:03:28;2.17;;;1.27;;
34896;SDS011;43407;51.828;-2.298;2022-07-29T07:05:54;1.10;;;0.98;;
34896;SDS011;43407;51.828;-2.298;2022-07-29T07:08:20;2.10;;;1.10;;
34896;SDS011;43407;51.828;-2.298;2022-07-29T07:10:47;2.42;;;1.50;;
34896;SDS011;43407;51.828;-2.298;2022-07-29T07:13:12;1.75;;;1.23;;
34896;SDS011;43407;51.828;-2.298;2022-07-29T07:15:39;2.47;;;1.20;;
34896;SDS011;43407;51.828;-2.298;2022-07-29T07:18:05;2.85;;;1.45;;
34896;SDS011;43407;51.828;-2.298;2022-07-29T07:20:31;2.50;;;1.50;;
34896;SDS011;43407;51.828;-2.298;2022-07-29T07:22:57;2.85;;;1.30;;
34896;SDS011;43407;51.828;-2.298;2022-07-29T07:25:22;2.45;;;1.40;;
34896;SDS011;43407;51.828;-2.298;2022-07-29T07:27:48;2.72;;;1.50;;
34896;SDS011;43407;51.828;-2.298;2022-07-29T07:30:14;1.60;;;1.50;;
34896;SDS011;43407;51.828;-2.298;2022-07-29T07:32:39;2.33;;;1.58;;
34896;SDS011;43407;51.828;-2.298;2022-07-29T07:35:06;1.75;;;1.30;;
34896;SDS011;43407;51.828;-2.298;2022-07-29T07:37:32;2.90;;;1.50;;
34896;SDS011;43407;51.828;-2.298;2022-07-29T07:39:58;3.55;;;1.90;;
34896;SDS011;43407;51.828;-2.298;2022-07-29T07:42:24;3.00;;;1.70;;
34896;SDS011;43407;51.828;-2.298;2022-07-29T07:44:50;2.30;;;1.17;;
34896;SDS011;43407;51.828;-2.298;2022-07-29T07:47:15;3.55;;;1.42;;
34896;SDS011;43407;51.828;-2.298;2022-07-29T07:49:51;2.70;;;1.40;;
34896;SDS011;43407;51.828;-2.298;2022-07-29T07:52:18;2.72;;;1.52;;
34896;SDS011;43407;51.828;-2.298;2022-07-29T07:54:45;2.30;;;1.30;;
34896;SDS011;43407;51.828;-2.298;2022-07-29T07:57:11;1.73;;;1.30;;
34896;SDS011;43407;51.828;-2.298;2022-07-29T07:59:37;3.35;;;1.63;;
34896;SDS011;43407;51.828;-2.298;2022-07-29T08:02:02;3.00;;;1.23;;
34896;SDS011;43407;51.828;-2.298;2022-07-29T08:04:28;3.80;;;1.33;;
34896;SDS011;43407;51.828;-2.298;2022-07-29T08:06:54;4.00;;;1.48;;
34896;SDS011;43407;51.828;-2.298;2022-07-29T08:09:21;3.08;;;1.27;;
34896;SDS011;43407;51.828;-2.298;2022-07-29T08:11:47;2.45;;;1.17;;
34896;SDS011;43407;51.828;-2.298;2022-07-29T08:14:12;2.78;;;1.27;;
34896;SDS011;43407;51.828;-2.298;2022-07-29T08:16:39;2.80;;;1.45;;
34896;SDS011;43407;51.828;-2.298;2022-07-29T08:19:08;3.67;;;1.52;;
34896;SDS011;43407;51.828;-2.298;2022-07-29T08:21:34;4.50;;;1.50;;
34896;SDS011;43407;51.828;-2.298;2022-07-29T08:23:59;2.42;;;1.50;;
34896;SDS011;43407;51.828;-2.298;2022-07-29T08:26:43;3.05;;;1.27;;
34896;SDS011;43407;51.828;-2.298;2022-07-29T08:29:09;3.65;;;1.50;;
34896;SDS011;43407;51.828;-2.298;2022-07-29T08:31:36;4.68;;;1.70;;
34896;SDS011;43407;51.828;-2.298;2022-07-29T08:34:02;3.10;;;1.45;;
34896;SDS011;43407;51.828;-2.298;2022-07-29T08:36:29;3.72;;;1.40;;
34896;SDS011;43407;51.828;-2.298;2022-07-29T08:38:54;2.70;;;1.40;;
34896;SDS011;43407;51.828;-2.298;2022-07-29T08:41:20;2.47;;;1.42;;
34896;SDS011;43407;51.828;-2.298;2022-07-29T08:43:46;3.80;;;1.50;;
34896;SDS011;43407;51.828;-2.298;2022-07-29T08:46:12;4.35;;;1.40;;
34896;SDS011;43407;51.828;-2.298;2022-07-29T08:48:39;6.45;;;1.73;;
34896;SDS011;43407;51.828;-2.298;2022-07-29T08:51:06;2.65;;;1.20;;
34896;SDS011;43407;51.828;-2.298;2022-07-29T08:53:32;4.85;;;1.42;;
34896;SDS011;43407;51.828;-2.298;2022-07-29T08:55:58;2.08;;;1.23;;
34896;SDS011;43407;51.828;-2.298;2022-07-29T08:58:24;5.78;;;1.30;;
34896;SDS011;43407;51.828;-2.298;2022-07-29T09:00:51;5.95;;;1.45;;
34896;SDS011;43407;51.828;-2.298;2022-07-29T09:03:19;2.78;;;1.50;;
34896;SDS011;43407;51.828;-2.298;2022-07-29T09:05:46;2.35;;;1.20;;
34896;SDS011;43407;51.828;-2.298;2022-07-29T09:08:12;4.40;;;1.42;;
34896;SDS011;43407;51.828;-2.298;2022-07-29T09:10:39;1.52;;;1.20;;
34896;SDS011;43407;51.828;-2.298;2022-07-29T09:13:04;1.83;;;1.25;;
34896;SDS011;43407;51.828;-2.298;2022-07-29T09:15:30;2.47;;;1.30;;
34896;SDS011;43407;51.828;-2.298;2022-07-29T09:17:56;3.58;;;1.42;;
34896;SDS011;43407;51.828;-2.298;2022-07-29T09:20:23;2.97;;;1.10;;
34896;SDS011;43407;51.828;-2.298;2022-07-29T09:22:50;1.90;;;1.30;;
34896;SDS011;43407;51.828;-2.298;2022-07-29T09:25:37;2.08;;;0.93;;
34896;SDS011;43407;51.828;-2.298;2022-07-29T09:28:10;1.73;;;0.90;;
34896;SDS011;43407;51.828;-2.298;2022-07-29T09:30:57;4.90;;;1.38;;
34896;SDS011;43407;51.828;-2.298;2022-07-29T09:33:31;5.05;;;1.40;;
34896;SDS011;43407;51.828;-2.298;2022-07-29T09:36:03;3.53;;;1.30;;
34896;SDS011;43407;51.828;-2.298;2022-07-29T09:38:30;3.70;;;1.38;;
34896;SDS011;43407;51.828;-2.298;2022-07-29T09:40:57;2.63;;;1.30;;
34896;SDS011;43407;51.828;-2.298;2022-07-29T09:43:23;5.43;;;1.58;;
34896;SDS011;43407;51.828;-2.298;2022-07-29T09:45:49;1.67;;;0.90;;
34896;SDS011;43407;51.828;-2.298;2022-07-29T09:48:15;2.58;;;1.30;;
34896;SDS011;43407;51.828;-2.298;2022-07-29T09:50:42;1.55;;;1.30;;
34896;SDS011;43407;51.828;-2.298;2022-07-29T09:53:09;3.60;;;1.25;;
34896;SDS011;43407;51.828;-2.298;2022-07-29T09:56:08;1.70;;;1.40;;
34896;SDS011;43407;51.828;-2.298;2022-07-29T09:58:27;3.65;;;1.33;;
34896;SDS011;43407;51.828;-2.298;2022-07-29T10:00:54;3.60;;;1.40;;
34896;SDS011;43407;51.828;-2.298;2022-07-29T10:03:20;2.35;;;1.27;;
34896;SDS011;43407;51.828;-2.298;2022-07-29T10:05:46;2.22;;;1.10;;
34896;SDS011;43407;51.828;-2.298;2022-07-29T10:08:32;1.83;;;1.10;;
34896;SDS011;43407;51.828;-2.298;2022-07-29T10:11:12;1.83;;;1.20;;
34896;SDS011;43407;51.828;-2.298;2022-07-29T10:13:38;1.85;;;1.30;;
34896;SDS011;43407;51.828;-2.298;2022-07-29T10:16:05;7.20;;;1.35;;
34896;SDS011;43407;51.828;-2.298;2022-07-29T10:18:31;2.85;;;1.60;;
34896;SDS011;43407;51.828;-2.298;2022-07-29T10:20:57;3.38;;;1.48;;
34896;SDS011;43407;51.828;-2.298;2022-07-29T10:23:23;2.25;;;1.50;;
34896;SDS011;43407;51.828;-2.298;2022-07-29T10:25:49;3.53;;;1.55;;
34896;SDS011;43407;51.828;-2.298;2022-07-29T10:28:14;2.13;;;1.13;;
34896;SDS011;43407;51.828;-2.298;2022-07-29T10:30:40;2.95;;;1.30;;
34896;SDS011;43407;51.828;-2.298;2022-07-29T10:36:02;2.08;;;1.30;;
34896;SDS011;43407;51.828;-2.298;2022-07-29T10:43:52;1.57;;;1.27;;
34896;SDS011;43407;51.828;-2.298;2022-07-29T10:46:28;1.92;;;1.30;;
34896;SDS011;43407;51.828;-2.298;2022-07-29T10:49:12;2.33;;;1.08;;
34896;SDS011;43407;51.828;-2.298;2022-07-29T10:51:54;2.20;;;1.33;;
34896;SDS011;43407;51.828;-2.298;2022-07-29T10:54:39;3.78;;;1.67;;
34896;SDS011;43407;51.828;-2.298;2022-07-29T10:57:14;2.58;;;1.30;;
34896;SDS011;43407;51.828;-2.298;2022-07-29T10:59:40;2.50;;;1.30;;
34896;SDS011;43407;51.828;-2.298;2022-07-29T11:05:07;3.53;;;1.60;;
34896;SDS011;43407;51.828;-2.298;2022-07-29T11:07:34;3.65;;;1.45;;
34896;SDS011;43407;51.828;-2.298;2022-07-29T11:15:16;3.10;;;1.40;;
34896;SDS011;43407;51.828;-2.298;2022-07-29T11:31:46;4.50;;;1.40;;
34896;SDS011;43407;51.828;-2.298;2022-07-29T11:45:03;3.15;;;1.40;;
34896;SDS011;43407;51.828;-2.298;2022-07-29T11:47:30;2.70;;;1.30;;
34896;SDS011;43407;51.828;-2.298;2022-07-29T11:49:58;3.72;;;1.20;;
34896;SDS011;43407;51.828;-2.298;2022-07-29T11:52:32;3.08;;;1.35;;
34896;SDS011;43407;51.828;-2.298;2022-07-29T11:55:09;2.80;;;1.30;;
34896;SDS011;43407;51.828;-2.298;2022-07-29T11:57:37;1.77;;;1.20;;
34896;SDS011;43407;51.828;-2.298;2022-07-29T12:00:09;2.15;;;1.40;;
34896;SDS011;43407;51.828;-2.298;2022-07-29T12:02:42;1.83;;;1.30;;
34896;SDS011;43407;51.828;-2.298;2022-07-29T12:05:08;4.32;;;1.13;;
34896;SDS011;43407;51.828;-2.298;2022-07-29T12:07:36;2.85;;;1.40;;
34896;SDS011;43407;51.828;-2.298;2022-07-29T12:10:03;3.17;;;1.20;;
34896;SDS011;43407;51.828;-2.298;2022-07-29T12:12:29;3.03;;;1.58;;
34896;SDS011;43407;51.828;-2.298;2022-07-29T12:14:55;1.83;;;1.17;;
34896;SDS011;43407;51.828;-2.298;2022-07-29T12:17:31;2.05;;;1.20;;
34896;SDS011;43407;51.828;-2.298;2022-07-29T12:19:58;2.70;;;1.00;;
34896;SDS011;43407;51.828;-2.298;2022-07-29T12:22:28;3.63;;;1.45;;
34896;SDS011;43407;51.828;-2.298;2022-07-29T12:25:00;1.50;;;1.20;;
34896;SDS011;43407;51.828;-2.298;2022-07-29T12:27:27;1.25;;;1.15;;
34896;SDS011;43407;51.828;-2.298;2022-07-29T12:29:59;1.77;;;1.25;;
34896;SDS011;43407;51.828;-2.298;2022-07-29T12:32:46;2.28;;;1.10;;
34896;SDS011;43407;51.828;-2.298;2022-07-29T12:35:17;1.75;;;1.35;;
34896;SDS011;43407;51.828;-2.298;2022-07-29T12:37:44;2.90;;;1.00;;
34896;SDS011;43407;51.828;-2.298;2022-07-29T12:40:12;1.35;;;0.82;;
34896;SDS011;43407;51.828;-2.298;2022-07-29T12:42:39;2.70;;;1.00;;
34896;SDS011;43407;51.828;-2.298;2022-07-29T12:45:05;3.28;;;1.45;;
34896;SDS011;43407;51.828;-2.298;2022-07-29T12:47:31;1.90;;;1.00;;
34896;SDS011;43407;51.828;-2.298;2022-07-29T12:50:07;2.50;;;1.30;;
34896;SDS011;43407;51.828;-2.298;2022-07-29T12:52:35;2.83;;;1.10;;
34896;SDS011;43407;51.828;-2.298;2022-07-29T12:55:01;2.38;;;1.23;;
34896;SDS011;43407;51.828;-2.298;2022-07-29T12:57:27;3.55;;;1.25;;
34896;SDS011;43407;51.828;-2.298;2022-07-29T13:00:09;4.15;;;1.20;;
34896;SDS011;43407;51.828;-2.298;2022-07-29T13:02:36;2.92;;;1.02;;
34896;SDS011;43407;51.828;-2.298;2022-07-29T13:05:03;3.30;;;1.15;;
34896;SDS011;43407;51.828;-2.298;2022-07-29T13:07:30;2.35;;;1.05;;
34896;SDS011;43407;51.828;-2.298;2022-07-29T13:10:19;2.08;;;1.00;;
34896;SDS011;43407;51.828;-2.298;2022-07-29T13:15:44;1.77;;;0.85;;
34896;SDS011;43407;51.828;-2.298;2022-07-29T13:18:32;3.22;;;1.10;;
34896;SDS011;43407;51.828;-2.298;2022-07-29T13:21:10;1.42;;;1.00;;
34896;SDS011;43407;51.828;-2.298;2022-07-29T13:23:36;1.88;;;1.40;;
34896;SDS011;43407;51.828;-2.298;2022-07-29T13:26:06;8.85;;;1.42;;
34896;SDS011;43407;51.828;-2.298;2022-07-29T13:28:34;1.60;;;1.10;;
34896;SDS011;43407;51.828;-2.298;2022-07-29T13:31:00;4.95;;;1.40;;
34896;SDS011;43407;51.828;-2.298;2022-07-29T13:33:26;2.85;;;1.10;;
34896;SDS011;43407;51.828;-2.298;2022-07-29T13:35:52;1.83;;;1.15;;
34896;SDS011;43407;51.828;-2.298;2022-07-29T13:38:17;3.40;;;1.02;;
34896;SDS011;43407;51.828;-2.298;2022-07-29T13:40:43;3.40;;;1.35;;
34896;SDS011;43407;51.828;-2.298;2022-07-29T13:43:09;4.10;;;1.30;;
34896;SDS011;43407;51.828;-2.298;2022-07-29T13:45:35;6.13;;;1.50;;
34896;SDS011;43407;51.828;-2.298;2022-07-29T13:48:01;2.15;;;1.13;;
34896;SDS011;43407;51.828;-2.298;2022-07-29T13:50:26;1.80;;;1.10;;
34896;SDS011;43407;51.828;-2.298;2022-07-29T13:52:52;2.28;;;1.02;;
34896;SDS011;43407;51.828;-2.298;2022-07-29T13:55:17;3.20;;;1.25;;
34896;SDS011;43407;51.828;-2.298;2022-07-29T13:57:43;1.35;;;0.98;;
34896;SDS011;43407;51.828;-2.298;2022-07-29T14:00:09;2.45;;;1.20;;
34896;SDS011;43407;51.828;-2.298;2022-07-29T14:02:35;3.78;;;1.20;;
34896;SDS011;43407;51.828;-2.298;2022-07-29T14:05:02;2.25;;;1.10;;
34896;SDS011;43407;51.828;-2.298;2022-07-29T14:07:28;1.83;;;1.45;;
34896;SDS011;43407;51.828;-2.298;2022-07-29T14:09:53;1.90;;;1.30;;
34896;SDS011;43407;51.828;-2.298;2022-07-29T14:12:19;1.20;;;1.10;;
34896;SDS011;43407;51.828;-2.298;2022-07-29T14:14:44;1.95;;;1.20;;
34896;SDS011;43407;51.828;-2.298;2022-07-29T14:17:10;2.13;;;1.00;;
34896;SDS011;43407;51.828;-2.298;2022-07-29T14:19:36;1.23;;;1.10;;
34896;SDS011;43407;51.828;-2.298;2022-07-29T14:22:03;1.20;;;0.95;;
34896;SDS011;43407;51.828;-2.298;2022-07-29T14:24:29;1.90;;;1.00;;
34896;SDS011;43407;51.828;-2.298;2022-07-29T14:26:55;5.55;;;1.38;;
34896;SDS011;43407;51.828;-2.298;2022-07-29T14:29:21;1.85;;;1.23;;
34896;SDS011;43407;51.828;-2.298;2022-07-29T14:31:46;1.42;;;0.80;;
34896;SDS011;43407;51.828;-2.298;2022-07-29T14:34:12;0.80;;;0.80;;
34896;SDS011;43407;51.828;-2.298;2022-07-29T14:36:37;3.03;;;0.85;;
34896;SDS011;43407;51.828;-2.298;2022-07-29T14:39:03;1.02;;;0.77;;
34896;SDS011;43407;51.828;-2.298;2022-07-29T14:41:29;2.80;;;0.85;;
34896;SDS011;43407;51.828;-2.298;2022-07-29T14:43:54;1.63;;;0.93;;
34896;SDS011;43407;51.828;-2.298;2022-07-29T14:46:20;1.98;;;0.85;;
34896;SDS011;43407;51.828;-2.298;2022-07-29T14:48:45;2.45;;;1.20;;
34896;SDS011;43407;51.828;-2.298;2022-07-29T14:51:11;0.68;;;0.68;;
34896;SDS011;43407;51.828;-2.298;2022-07-29T14:53:36;2.17;;;0.88;;
34896;SDS011;43407;51.828;-2.298;2022-07-29T14:56:02;3.10;;;1.20;;
34896;SDS011;43407;51.828;-2.298;2022-07-29T14:58:27;4.90;;;1.52;;
34896;SDS011;43407;51.828;-2.298;2022-07-29T15:00:53;2.70;;;1.23;;
34896;SDS011;43407;51.828;-2.298;2022-07-29T15:03:20;3.15;;;1.20;;
34896;SDS011;43407;51.828;-2.298;2022-07-29T15:05:45;4.18;;;1.40;;
34896;SDS011;43407;51.828;-2.298;2022-07-29T15:08:11;0.80;;;0.80;;
34896;SDS011;43407;51.828;-2.298;2022-07-29T15:10:36;1.75;;;0.90;;
34896;SDS011;43407;51.828;-2.298;2022-07-29T15:13:02;0.88;;;0.88;;
34896;SDS011;43407;51.828;-2.298;2022-07-29T15:15:28;3.10;;;0.90;;
34896;SDS011;43407;51.828;-2.298;2022-07-29T15:17:53;1.35;;;1.00;;
34896;SDS011;43407;51.828;-2.298;2022-07-29T15:20:19;2.33;;;1.10;;
34896;SDS011;43407;51.828;-2.298;2022-07-29T15:22:46;1.88;;;0.90;;
34896;SDS011;43407;51.828;-2.298;2022-07-29T15:25:11;3.05;;;1.10;;